Portada
METAR-TAF:

METAR-TAF

Aeropuertos :

Aeropuerto Internacional de Posadas Libertador General José de San Martín

Posadas, Argentina

latitud: 27-22S, longitud: 055-58W, altitud: 131 m

Observación

El informe se hizo hace 1 hora y 50 minutos, a las 00:00 UTC
Viento 6 kt del sureste
Temperatura 28°C
Humedad 74%
Presión 1015 hPa
Visibilidad 10 km o más
sin nubes por debajo de 1500 m y sin presencia de cumulonimbus.

METAR: SARP 300000Z 14006KT CAVOK 28/23 Q1015

Hora: 22:50 (01:50 UTC)

Pronóstico

El informe se hizo hace 2 horas y 50 minutos, a las 23:00 UTC
Pronóstico válido del 30 a las 00 UTC al 30 a las 24 UTC
Viento 5 kt del este-sureste
Visibilidad 10 km o más
sin nubes por debajo de 1500 m y sin presencia de cumulonimbus.
Probabilidad 30%
del 30 a las 09 UTC al 30 a las 11 UTC
Visibilidad: 3000 m
neblina

TAF: SARP 292300Z 3000/3024 11005KT CAVOK TX31/3017Z TN22/3009Z PROB30 3009/3011 3000 BR NSC

Observaciones y pronósticos meteorológicos de más de 4000 aeropuertos (mensajes METAR y TAF).

Los puntos amarillos y rojos representan las estaciones disponibles.

Ponga el ratón en el punto deseado para ver el nombre de la estación.

Haga clic para ver las observaciones y los pronósticos meteorológicos.

Para cambiar el mapa : haga clic en los botones verdes con una cruz de color negro para hacer un zoom, en el botón verde con un guión para alejar o en las flechas verdes para mapas adyacentes.


METAR-TAF: